Time;durP1;ratioP1;P1;durP2;ratioP2;P2;SDS_P1;SDS_P2;PMS_P1;PMS_P2;Temp;Humidity;BMP_temperature;BMP_pressure;BME280_temperature;BME280_humidity;BME280_pressure;Samples;Min_cycle;Max_cycle;Signal;HPM_P1;HPM_P2
2024/03/07 00:00:43;;;;;;;24.13;17.67;;;9.60;99.90;;;;;;5027947;28;20486;-67
2024/03/07 00:03:08;;;;;;;23.30;19.93;;;9.60;99.90;;;;;;5024084;28;20419;-68
2024/03/07 00:05:34;;;;;;;27.20;19.77;;;9.50;99.90;;;;;;5015565;28;21043;-68
2024/03/07 00:08:00;;;;;;;25.10;18.83;;;9.50;99.90;;;;;;5021098;28;20342;-67
2024/03/07 00:10:25;;;;;;;25.87;19.47;;;9.50;99.90;;;;;;5021538;28;20387;-67
2024/03/07 00:12:51;;;;;;;22.83;18.37;;;9.50;99.90;;;;;;5022966;28;20190;-67
2024/03/07 00:15:17;;;;;;;28.43;20.40;;;9.50;99.90;;;;;;5010683;28;20540;-67
2024/03/07 00:17:43;;;;;;;27.70;20.57;;;9.50;99.90;;;;;;5020064;28;20561;-68
2024/03/07 00:20:13;;;;;;;25.57;19.23;;;9.50;99.90;;;;;;5018956;28;20424;-67
2024/03/07 00:22:42;;;;;;;23.53;20.40;;;9.40;99.90;;;;;;5021621;28;20633;-67
2024/03/07 00:25:09;;;;;;;23.60;19.47;;;9.50;99.90;;;;;;5025161;28;20846;-68
2024/03/07 00:27:38;;;;;;;26.30;20.73;;;9.50;99.90;;;;;;5014832;28;20458;-68
2024/03/07 00:30:08;;;;;;;26.30;19.33;;;9.50;99.90;;;;;;5025114;28;20419;-68
2024/03/07 00:32:36;;;;;;;25.73;22.20;;;9.40;99.90;;;;;;5025969;28;20780;-69
2024/03/07 00:35:05;;;;;;;29.67;22.40;;;9.40;99.90;;;;;;5022995;28;20441;-67
2024/03/07 00:37:33;;;;;;;32.40;21.93;;;9.40;99.90;;;;;;5022341;28;20458;-67
2024/03/07 00:39:59;;;;;;;37.80;23.07;;;9.40;99.90;;;;;;5024710;28;20415;-68
2024/03/07 00:42:24;;;;;;;33.77;25.57;;;9.40;99.90;;;;;;5017121;28;21011;-67
2024/03/07 00:44:50;;;;;;;33.57;24.17;;;9.40;99.90;;;;;;5014739;28;20553;-67
2024/03/07 00:47:17;;;;;;;30.07;23.13;;;9.40;99.90;;;;;;5021958;28;20278;-68
2024/03/07 00:49:43;;;;;;;32.77;24.60;;;9.40;99.90;;;;;;5022007;28;20177;-67
2024/03/07 00:52:10;;;;;;;28.70;22.47;;;9.40;99.90;;;;;;5021378;28;20968;-67
2024/03/07 00:54:36;;;;;;;31.00;22.60;;;9.40;99.90;;;;;;5026966;28;20454;-67
2024/03/07 00:57:01;;;;;;;36.90;25.27;;;9.40;99.90;;;;;;5024200;28;20929;-67
2024/03/07 00:59:27;;;;;;;40.77;25.63;;;9.40;99.90;;;;;;5017536;28;20419;-68
2024/03/07 01:01:52;;;;;;;33.77;25.17;;;9.30;99.90;;;;;;5017371;28;20185;-68
2024/03/07 01:04:18;;;;;;;34.77;25.53;;;9.30;99.90;;;;;;5023484;28;20204;-68
2024/03/07 01:06:44;;;;;;;32.60;23.07;;;9.30;99.90;;;;;;5018426;28;20216;-68
2024/03/07 01:09:14;;;;;;;34.93;22.93;;;9.30;99.90;;;;;;5024915;28;20418;-68
2024/03/07 01:11:44;;;;;;;29.13;22.37;;;9.30;99.90;;;;;;5019423;28;20615;-67
2024/03/07 01:14:10;;;;;;;33.50;23.43;;;9.30;99.90;;;;;;5021941;28;20431;-67
2024/03/07 01:16:36;;;;;;;40.03;25.77;;;9.30;99.90;;;;;;5016639;28;20474;-67
2024/03/07 01:19:03;;;;;;;33.10;24.27;;;9.30;99.90;;;;;;5016967;28;20623;-67
2024/03/07 01:21:29;;;;;;;34.53;27.10;;;9.30;99.90;;;;;;5019501;28;20259;-68
2024/03/07 01:23:54;;;;;;;39.97;26.63;;;9.30;99.90;;;;;;5018762;28;20523;-67
2024/03/07 01:26:20;;;;;;;34.03;25.20;;;9.20;99.90;;;;;;5017722;28;20410;-68
2024/03/07 01:28:45;;;;;;;38.10;26.47;;;9.20;99.90;;;;;;5016222;28;20219;-68
2024/03/07 01:31:11;;;;;;;34.77;26.43;;;9.20;99.90;;;;;;5023425;28;20545;-67
2024/03/07 01:33:36;;;;;;;38.60;24.30;;;9.20;99.90;;;;;;5024509;28;20770;-67
2024/03/07 01:36:02;;;;;;;34.10;24.87;;;9.20;99.90;;;;;;5022625;28;20189;-67
2024/03/07 01:38:28;;;;;;;46.17;25.37;;;9.10;99.90;;;;;;5025548;28;20181;-68
2024/03/07 01:40:54;;;;;;;38.63;26.20;;;9.10;99.90;;;;;;5023247;28;20191;-68
2024/03/07 01:43:21;;;;;;;34.87;25.57;;;9.10;99.90;;;;;;5019861;28;20189;-67
2024/03/07 01:45:47;;;;;;;35.77;25.40;;;9.10;99.90;;;;;;5024140;28;20466;-68
2024/03/07 01:48:19;;;;;;;33.17;24.20;;;9.00;99.90;;;;;;5023744;28;20415;-68
2024/03/07 01:50:46;;;;;;;39.07;25.30;;;9.00;99.90;;;;;;5020749;28;20441;-67
2024/03/07 01:53:14;;;;;;;36.83;26.10;;;9.00;99.90;;;;;;5024398;28;20959;-68
2024/03/07 01:55:39;;;;;;;36.37;25.10;;;9.00;99.90;;;;;;5019568;28;20815;-68
2024/03/07 01:58:08;;;;;;;38.97;26.13;;;8.90;99.90;;;;;;5018417;28;20419;-67
2024/03/07 02:00:34;;;;;;;36.20;26.43;;;8.90;99.90;;;;;;5013820;28;20305;-67
2024/03/07 02:02:59;;;;;;;40.33;25.40;;;8.90;99.90;;;;;;5022135;28;20419;-67
2024/03/07 02:05:25;;;;;;;36.30;24.90;;;8.90;99.90;;;;;;5018493;28;20208;-67
2024/03/07 02:07:52;;;;;;;37.37;27.60;;;8.90;99.90;;;;;;5025677;28;20180;-67
2024/03/07 02:10:18;;;;;;;35.10;24.53;;;8.90;99.90;;;;;;5023028;28;20219;-67
2024/03/07 02:12:45;;;;;;;39.63;26.80;;;9.00;99.90;;;;;;5024726;28;20438;-68
2024/03/07 02:15:10;;;;;;;39.90;27.90;;;9.00;99.90;;;;;;5023576;28;20435;-68
2024/03/07 02:17:37;;;;;;;40.17;27.73;;;8.90;99.90;;;;;;5020145;28;20451;-67
2024/03/07 02:20:04;;;;;;;38.90;27.80;;;9.00;99.90;;;;;;5026134;28;20185;-67
2024/03/07 02:22:29;;;;;;;34.10;26.57;;;8.90;99.90;;;;;;5024800;28;20453;-67
2024/03/07 02:24:55;;;;;;;39.20;25.33;;;9.00;99.90;;;;;;5020725;28;20968;-67
2024/03/07 02:27:20;;;;;;;37.27;25.93;;;9.00;99.90;;;;;;5017533;28;20212;-67
2024/03/07 02:29:46;;;;;;;38.97;26.53;;;8.90;99.90;;;;;;5019399;28;20173;-67
2024/03/07 02:32:12;;;;;;;36.40;27.47;;;8.90;99.90;;;;;;5022111;28;20306;-68
2024/03/07 02:34:38;;;;;;;40.40;25.33;;;8.90;99.90;;;;;;5020094;28;20901;-67
2024/03/07 02:37:04;;;;;;;35.77;26.63;;;8.90;99.90;;;;;;5031982;28;20483;-67
2024/03/07 02:39:30;;;;;;;35.60;26.33;;;8.90;99.90;;;;;;5018302;28;20835;-67
2024/03/07 02:41:55;;;;;;;43.63;26.83;;;8.90;99.90;;;;;;5026983;28;20267;-67
2024/03/07 02:44:21;;;;;;;36.60;25.73;;;8.90;99.90;;;;;;5018363;28;20200;-68
2024/03/07 02:46:46;;;;;;;37.07;27.60;;;8.90;99.90;;;;;;5028175;28;20323;-68
2024/03/07 02:49:15;;;;;;;35.37;26.60;;;8.90;99.90;;;;;;5024999;28;20184;-68
2024/03/07 02:51:41;;;;;;;35.00;26.40;;;8.90;99.90;;;;;;5023883;28;20541;-67
2024/03/07 02:54:08;;;;;;;34.93;24.83;;;8.90;99.90;;;;;;5018800;28;20442;-67
2024/03/07 02:56:33;;;;;;;38.17;24.77;;;8.90;99.90;;;;;;5023651;28;20415;-69
2024/03/07 02:58:59;;;;;;;36.60;26.93;;;8.80;99.90;;;;;;5018568;28;20436;-68
2024/03/07 03:01:24;;;;;;;37.27;26.57;;;8.80;99.90;;;;;;5021459;28;20196;-67
2024/03/07 03:03:50;;;;;;;36.33;25.40;;;8.80;99.90;;;;;;5020633;28;20199;-67
2024/03/07 03:06:15;;;;;;;35.97;25.73;;;8.80;99.90;;;;;;5017510;28;20238;-68
2024/03/07 03:08:41;;;;;;;33.87;25.97;;;8.70;99.90;;;;;;5017317;28;20674;-68
2024/03/07 03:11:09;;;;;;;35.87;25.37;;;8.70;99.90;;;;;;5026939;28;20190;-68
2024/03/07 03:13:37;;;;;;;37.73;27.47;;;8.70;99.90;;;;;;5022982;28;20169;-67
2024/03/07 03:16:06;;;;;;;43.27;28.17;;;8.60;99.90;;;;;;5024491;28;20429;-67
2024/03/07 03:18:33;;;;;;;38.10;26.73;;;8.60;99.90;;;;;;5019008;28;20610;-67
2024/03/07 03:20:59;;;;;;;39.10;27.53;;;8.50;99.90;;;;;;5025254;28;20415;-67
2024/03/07 03:23:25;;;;;;;36.53;27.40;;;8.50;99.90;;;;;;5016956;28;20443;-67
2024/03/07 03:25:50;;;;;;;39.30;26.47;;;8.40;99.90;;;;;;5017525;28;20212;-67
2024/03/07 03:28:18;;;;;;;37.87;27.30;;;8.40;99.90;;;;;;5021594;28;20548;-67
2024/03/07 03:30:44;;;;;;;39.40;28.00;;;8.40;99.90;;;;;;5026241;28;20183;-67
2024/03/07 03:33:10;;;;;;;40.70;27.83;;;8.30;99.90;;;;;;5021570;28;20498;-67
2024/03/07 03:35:36;;;;;;;33.60;26.07;;;8.20;99.90;;;;;;5016903;28;20255;-67
2024/03/07 03:38:02;;;;;;;38.90;26.60;;;8.20;99.90;;;;;;5026334;28;20303;-67
2024/03/07 03:40:28;;;;;;;35.53;24.73;;;8.10;99.90;;;;;;5021958;28;20507;-68
2024/03/07 03:42:53;;;;;;;37.23;26.37;;;8.00;99.90;;;;;;5015580;28;20220;-67
2024/03/07 03:45:19;;;;;;;35.90;25.83;;;8.00;99.90;;;;;;5031450;28;20258;-67
2024/03/07 03:47:45;;;;;;;40.10;27.23;;;8.00;99.90;;;;;;5024373;28;20205;-67
2024/03/07 03:50:12;;;;;;;36.13;24.87;;;7.90;99.90;;;;;;5023112;28;20191;-67
2024/03/07 03:52:39;;;;;;;37.77;26.87;;;7.80;99.90;;;;;;5022970;28;20490;-67
2024/03/07 03:55:05;;;;;;;39.40;26.60;;;7.80;99.90;;;;;;5026977;28;20462;-67
2024/03/07 03:57:32;;;;;;;36.77;25.43;;;7.70;99.90;;;;;;5021165;28;20423;-67
2024/03/07 04:00:09;;;;;;;41.53;27.23;;;7.70;99.90;;;;;;5020493;28;20508;-67
2024/03/07 04:02:48;;;;;;;35.87;26.53;;;7.60;99.90;;;;;;5023049;28;20407;-67
2024/03/07 04:05:16;;;;;;;43.80;26.70;;;7.60;99.90;;;;;;5023185;28;20850;-67
2024/03/07 04:07:41;;;;;;;49.70;28.13;;;7.50;99.90;;;;;;5017520;28;20509;-67
2024/03/07 04:10:08;;;;;;;37.97;25.97;;;7.50;99.90;;;;;;5023126;28;20430;-67
2024/03/07 04:12:38;;;;;;;36.93;26.37;;;7.50;99.90;;;;;;5020436;28;20185;-67
2024/03/07 04:15:07;;;;;;;35.70;25.87;;;7.40;99.90;;;;;;5022452;28;20842;-67
2024/03/07 04:17:33;;;;;;;40.03;26.87;;;7.40;99.90;;;;;;5018476;28;20802;-67
2024/03/07 04:20:05;;;;;;;40.20;27.20;;;7.30;99.90;;;;;;5029218;28;20415;-67
2024/03/07 04:22:31;;;;;;;39.33;24.80;;;7.30;99.90;;;;;;5020110;28;20944;-67
2024/03/07 04:24:57;;;;;;;38.83;25.97;;;7.30;99.90;;;;;;5018210;28;20437;-68
2024/03/07 04:27:23;;;;;;;50.03;29.13;;;7.20;99.90;;;;;;5020181;28;20451;-67
2024/03/07 04:29:49;;;;;;;38.53;27.47;;;7.20;99.90;;;;;;5022026;28;20177;-67
2024/03/07 04:32:15;;;;;;;38.93;25.93;;;7.20;99.90;;;;;;5021276;28;20721;-67
2024/03/07 04:34:40;;;;;;;40.47;28.20;;;7.10;99.90;;;;;;5019741;28;20439;-67
2024/03/07 04:37:06;;;;;;;32.87;24.97;;;7.10;99.90;;;;;;5027480;28;20519;-67
2024/03/07 04:39:34;;;;;;;36.40;25.10;;;7.10;99.90;;;;;;5018000;28;20745;-67
2024/03/07 04:42:04;;;;;;;37.40;26.67;;;7.10;99.90;;;;;;5024934;28;20189;-67
2024/03/07 04:44:35;;;;;;;40.53;26.33;;;7.00;99.90;;;;;;5014727;28;20451;-67
2024/03/07 04:47:01;;;;;;;35.40;26.37;;;7.00;99.90;;;;;;5017588;28;20940;-67
2024/03/07 04:49:29;;;;;;;39.97;27.13;;;7.00;99.90;;;;;;5022624;28;20408;-68
2024/03/07 04:51:56;;;;;;;42.13;26.80;;;7.00;99.90;;;;;;5020335;28;20896;-67
2024/03/07 04:54:23;;;;;;;40.43;27.13;;;6.90;99.90;;;;;;5015246;28;20969;-67
2024/03/07 04:56:50;;;;;;;41.30;28.27;;;6.90;99.90;;;;;;5018652;28;20427;-67
2024/03/07 04:59:17;;;;;;;45.30;27.53;;;6.90;99.90;;;;;;5018230;28;20468;-67
2024/03/07 05:01:44;;;;;;;40.23;27.13;;;6.80;99.90;;;;;;5024394;28;20885;-67
2024/03/07 05:04:11;;;;;;;38.70;25.47;;;6.80;99.90;;;;;;5016391;28;21081;-67
2024/03/07 05:06:37;;;;;;;40.13;26.63;;;6.70;99.90;;;;;;5023616;28;20630;-67
2024/03/07 05:09:04;;;;;;;43.67;29.77;;;6.70;99.90;;;;;;5025337;28;20562;-67
2024/03/07 05:11:31;;;;;;;42.23;25.70;;;6.70;99.90;;;;;;5025814;28;20228;-67
2024/03/07 05:14:00;;;;;;;37.40;26.07;;;6.70;99.90;;;;;;5021347;28;20512;-67
2024/03/07 05:16:30;;;;;;;45.93;26.53;;;6.70;99.90;;;;;;5019641;28;20447;-67
2024/03/07 05:18:59;;;;;;;42.70;27.10;;;6.60;99.90;;;;;;5024720;28;20415;-67
2024/03/07 05:21:38;;;;;;;37.57;27.00;;;6.60;99.90;;;;;;5024353;28;20427;-67
2024/03/07 05:24:05;;;;;;;40.97;27.93;;;6.60;99.90;;;;;;5024443;28;20474;-67
2024/03/07 05:26:37;;;;;;;41.40;28.00;;;6.50;99.90;;;;;;5026055;28;20469;-67
2024/03/07 05:29:07;;;;;;;40.93;26.60;;;6.50;99.90;;;;;;5022059;28;20410;-67
2024/03/07 05:31:36;;;;;;;40.60;27.20;;;6.50;99.90;;;;;;5019887;28;20415;-68
2024/03/07 05:34:08;;;;;;;39.90;26.80;;;6.50;99.90;;;;;;5021312;28;20540;-67
2024/03/07 05:36:34;;;;;;;42.70;26.63;;;6.50;99.90;;;;;;5021056;28;20416;-67
2024/03/07 05:39:01;;;;;;;42.90;29.00;;;6.40;99.90;;;;;;5019892;28;20466;-67
2024/03/07 05:41:29;;;;;;;40.40;27.43;;;6.40;99.90;;;;;;5025556;28;20987;-67
2024/03/07 05:43:58;;;;;;;39.57;27.17;;;6.40;99.90;;;;;;5021719;28;20439;-67
2024/03/07 05:46:23;;;;;;;47.83;29.93;;;6.40;99.90;;;;;;5020732;28;20879;-67
2024/03/07 05:48:51;;;;;;;42.13;27.63;;;6.40;99.90;;;;;;5022522;28;20419;-67
2024/03/07 05:51:18;;;;;;;37.50;26.27;;;6.30;99.90;;;;;;5022730;28;20184;-67
2024/03/07 05:53:43;;;;;;;42.90;28.10;;;6.30;99.90;;;;;;5021820;28;20961;-67
2024/03/07 05:56:09;;;;;;;42.40;28.80;;;6.30;99.90;;;;;;5027508;28;20426;-67
2024/03/07 05:58:35;;;;;;;45.50;27.77;;;6.30;99.90;;;;;;5015820;28;20193;-67
2024/03/07 06:01:00;;;;;;;40.30;26.50;;;6.20;99.90;;;;;;5019845;28;20180;-67
2024/03/07 06:03:26;;;;;;;40.33;26.90;;;6.30;99.90;;;;;;5022435;28;20279;-67
2024/03/07 06:05:53;;;;;;;39.70;26.50;;;6.20;99.90;;;;;;5017179;28;20282;-67
2024/03/07 06:08:20;;;;;;;42.30;28.80;;;6.20;99.90;;;;;;5025630;28;20544;-67
2024/03/07 06:10:47;;;;;;;43.13;27.87;;;6.20;99.90;;;;;;5023491;28;20478;-67
2024/03/07 06:13:15;;;;;;;42.13;28.40;;;6.20;99.90;;;;;;5022785;28;20419;-68
2024/03/07 06:15:44;;;;;;;40.33;26.47;;;6.10;99.90;;;;;;5022241;28;20436;-67
2024/03/07 06:18:10;;;;;;;40.27;26.73;;;6.10;99.90;;;;;;5021577;28;20439;-67
2024/03/07 06:20:37;;;;;;;39.20;26.30;;;6.10;99.90;;;;;;5017355;28;20428;-67
2024/03/07 06:23:06;;;;;;;44.83;29.40;;;6.10;99.90;;;;;;5023215;28;20420;-67
2024/03/07 06:25:47;;;;;;;42.70;27.53;;;6.10;99.90;;;;;;5022099;28;20450;-67
2024/03/07 06:28:13;;;;;;;41.60;27.10;;;6.10;99.90;;;;;;5019337;28;20530;-67
2024/03/07 06:30:44;;;;;;;40.17;28.10;;;6.10;99.90;;;;;;5023926;28;20823;-68
2024/03/07 06:33:10;;;;;;;40.40;29.23;;;6.10;99.90;;;;;;5020869;28;20411;-67
2024/03/07 06:35:37;;;;;;;42.17;27.57;;;6.10;99.90;;;;;;5019598;28;20437;-67
2024/03/07 06:38:03;;;;;;;39.13;27.20;;;6.10;99.90;;;;;;5023324;28;20464;-67
2024/03/07 06:40:29;;;;;;;44.13;26.97;;;6.10;99.90;;;;;;5038664;28;20907;-67
2024/03/07 06:42:55;;;;;;;43.70;27.10;;;6.10;99.90;;;;;;5024845;28;20917;-67
2024/03/07 06:45:21;;;;;;;40.87;26.90;;;6.10;99.90;;;;;;5018998;28;20439;-66
2024/03/07 06:47:47;;;;;;;43.97;28.30;;;6.10;99.90;;;;;;5020869;28;20922;-67
2024/03/07 06:50:19;;;;;;;47.90;28.27;;;6.10;99.90;;;;;;5022391;28;20181;-67
2024/03/07 06:52:48;;;;;;;41.10;26.03;;;6.10;99.90;;;;;;5019260;28;20464;-67
2024/03/07 06:55:18;;;;;;;44.90;29.40;;;6.10;99.90;;;;;;5020597;28;20460;-66
2024/03/07 06:57:44;;;;;;;42.23;26.63;;;6.10;99.90;;;;;;5021081;28;20419;-67
2024/03/07 07:00:19;;;;;;;40.47;27.90;;;6.10;99.90;;;;;;5022771;28;20566;-65
2024/03/07 07:02:46;;;;;;;43.37;27.60;;;6.10;99.90;;;;;;5023350;28;20451;-66
2024/03/07 07:05:12;;;;;;;41.97;27.80;;;6.10;99.90;;;;;;5023035;28;20443;-66
2024/03/07 07:07:38;;;;;;;42.83;28.47;;;6.00;99.90;;;;;;5020401;28;20464;-67
2024/03/07 07:10:07;;;;;;;40.57;27.40;;;6.00;99.90;;;;;;5019415;28;20444;-67
2024/03/07 07:12:33;;;;;;;39.57;28.00;;;6.10;99.90;;;;;;5021630;28;20958;-67
2024/03/07 07:14:58;;;;;;;41.73;27.30;;;6.10;99.90;;;;;;5022439;28;20470;-66
2024/03/07 07:17:25;;;;;;;41.20;25.20;;;6.10;99.90;;;;;;5019831;28;20193;-66
2024/03/07 07:19:52;;;;;;;39.50;26.67;;;6.10;99.90;;;;;;5023753;28;20180;-66
2024/03/07 07:22:18;;;;;;;42.17;27.93;;;6.10;99.90;;;;;;5018925;28;20913;-67
2024/03/07 07:24:44;;;;;;;38.43;26.47;;;6.10;99.90;;;;;;5021777;28;20455;-67
2024/03/07 07:27:09;;;;;;;39.47;26.97;;;6.10;99.90;;;;;;5020799;28;20213;-67
2024/03/07 07:29:35;;;;;;;38.00;25.63;;;6.20;99.90;;;;;;5021111;28;20434;-67
2024/03/07 07:32:00;;;;;;;37.00;25.00;;;6.20;99.90;;;;;;5024709;28;20230;-67
2024/03/07 07:34:26;;;;;;;36.27;23.30;;;6.20;99.90;;;;;;5019454;28;20196;-67
2024/03/07 07:36:53;;;;;;;38.97;25.13;;;6.20;99.90;;;;;;5020361;28;20251;-67
2024/03/07 07:39:18;;;;;;;40.23;26.80;;;6.30;99.90;;;;;;5020329;28;20185;-66
2024/03/07 07:41:44;;;;;;;32.70;24.20;;;6.40;99.90;;;;;;5022827;28;20423;-67
2024/03/07 07:44:09;;;;;;;37.50;24.83;;;6.40;99.90;;;;;;5019126;28;20216;-67
2024/03/07 07:46:35;;;;;;;41.77;24.73;;;6.40;99.90;;;;;;5018174;28;20225;-67
2024/03/07 07:49:02;;;;;;;33.13;23.00;;;6.50;99.90;;;;;;5021824;28;20239;-67
2024/03/07 07:51:28;;;;;;;35.63;22.73;;;6.60;99.90;;;;;;5024496;28;20178;-67
2024/03/07 07:53:56;;;;;;;30.37;22.80;;;6.60;99.90;;;;;;5021487;28;20535;-67
2024/03/07 07:56:22;;;;;;;35.50;25.17;;;6.60;99.90;;;;;;5020709;28;20416;-68
2024/03/07 07:58:48;;;;;;;30.70;22.20;;;6.70;99.90;;;;;;5022282;28;20481;-66
2024/03/07 08:01:16;;;;;;;33.33;22.73;;;6.70;99.90;;;;;;5017380;28;20440;-66
2024/03/07 08:03:46;;;;;;;32.10;21.60;;;6.70;99.90;;;;;;5024573;28;20498;-66
2024/03/07 08:06:11;;;;;;;29.17;21.40;;;6.80;99.90;;;;;;5017626;28;20522;-66
2024/03/07 08:08:37;;;;;;;29.73;22.13;;;6.80;99.90;;;;;;5020847;28;20415;-67
2024/03/07 08:11:03;;;;;;;28.97;22.03;;;6.80;99.90;;;;;;5019671;28;20958;-67
2024/03/07 08:13:28;;;;;;;30.80;22.43;;;6.80;99.90;;;;;;5023278;28;20211;-67
2024/03/07 08:15:54;;;;;;;28.73;21.70;;;6.90;99.90;;;;;;5018909;28;20188;-67
2024/03/07 08:18:20;;;;;;;31.67;20.73;;;6.90;99.90;;;;;;5021031;28;20277;-67
2024/03/07 08:20:46;;;;;;;28.70;20.53;;;6.90;99.90;;;;;;5016329;28;20188;-67
2024/03/07 08:23:12;;;;;;;30.03;21.00;;;7.00;99.90;;;;;;5017339;28;20447;-67
2024/03/07 08:25:42;;;;;;;31.47;22.63;;;7.00;99.90;;;;;;5021263;28;20493;-67
2024/03/07 08:28:08;;;;;;;30.30;22.73;;;7.00;99.90;;;;;;5021867;28;20432;-67
2024/03/07 08:30:34;;;;;;;30.87;21.63;;;7.10;99.90;;;;;;5020846;28;20427;-67
2024/03/07 08:33:02;;;;;;;33.93;20.33;;;7.10;99.90;;;;;;5020698;28;20471;-67
2024/03/07 08:35:29;;;;;;;27.67;21.00;;;7.20;99.90;;;;;;5019139;28;20949;-67
2024/03/07 08:37:57;;;;;;;28.43;18.10;;;7.20;99.90;;;;;;5026470;28;20935;-67
2024/03/07 08:40:32;;;;;;;23.50;18.57;;;7.30;99.90;;;;;;5021202;28;20882;-67
2024/03/07 08:42:58;;;;;;;28.13;20.30;;;7.30;99.90;;;;;;5021846;28;20935;-66
2024/03/07 08:45:28;;;;;;;36.30;23.40;;;7.40;99.90;;;;;;5027356;28;20435;-67
2024/03/07 08:47:55;;;;;;;31.30;21.80;;;7.40;99.90;;;;;;5021850;28;20542;-67
2024/03/07 08:50:22;;;;;;;24.67;18.23;;;7.50;99.90;;;;;;5018555;28;20810;-67
2024/03/07 08:52:49;;;;;;;29.30;19.90;;;7.50;99.90;;;;;;5019087;28;20522;-66
2024/03/07 08:55:20;;;;;;;22.83;17.10;;;7.60;99.90;;;;;;5022563;28;20447;-67
2024/03/07 08:57:48;;;;;;;25.07;18.53;;;7.60;99.90;;;;;;5014897;28;20439;-66
2024/03/07 09:00:23;;;;;;;24.27;18.67;;;7.60;99.90;;;;;;5019811;28;20502;-66
2024/03/07 09:02:53;;;;;;;32.10;19.30;;;7.60;99.90;;;;;;5016631;28;20420;-66
2024/03/07 09:05:21;;;;;;;24.53;17.70;;;7.70;99.90;;;;;;5018456;28;20434;-67
2024/03/07 09:07:48;;;;;;;24.07;18.67;;;7.70;99.90;;;;;;5020186;28;21036;-66
2024/03/07 09:10:17;;;;;;;27.13;20.70;;;7.80;99.90;;;;;;5022771;28;20439;-66
2024/03/07 09:12:44;;;;;;;30.00;22.27;;;7.90;99.90;;;;;;5018189;28;20500;-67
2024/03/07 09:15:11;;;;;;;30.50;22.80;;;7.90;99.90;;;;;;5018250;28;20443;-66
2024/03/07 09:17:37;;;;;;;27.77;20.10;;;7.90;99.90;;;;;;5019380;28;20432;-66
2024/03/07 09:20:09;;;;;;;27.47;20.33;;;8.00;99.90;;;;;;5017572;28;20949;-67
2024/03/07 09:22:34;;;;;;;34.53;19.80;;;8.00;99.90;;;;;;5021707;28;20440;-66
2024/03/07 09:25:00;;;;;;;25.00;18.97;;;8.00;99.90;;;;;;5024622;28;20537;-67
2024/03/07 09:27:26;;;;;;;27.80;19.40;;;8.00;99.90;;;;;;5025484;28;20227;-67
2024/03/07 09:29:51;;;;;;;27.00;20.67;;;8.00;99.90;;;;;;5021461;28;20411;-67
2024/03/07 09:32:18;;;;;;;27.37;19.23;;;8.10;99.90;;;;;;5021544;28;20180;-67
2024/03/07 09:34:43;;;;;;;24.00;19.00;;;8.20;99.90;;;;;;5023196;28;20188;-68
2024/03/07 09:37:09;;;;;;;24.70;19.30;;;8.20;99.90;;;;;;5026912;28;20424;-67
2024/03/07 09:39:35;;;;;;;30.97;21.70;;;8.30;99.90;;;;;;5024814;28;20177;-67
2024/03/07 09:42:10;;;;;;;24.60;18.77;;;8.30;99.90;;;;;;5018835;28;20282;-67
2024/03/07 09:44:39;;;;;;;28.30;20.93;;;8.30;99.90;;;;;;5024366;28;20863;-67
2024/03/07 09:47:05;;;;;;;27.67;21.40;;;8.40;99.90;;;;;;5016379;28;20466;-67
2024/03/07 09:49:35;;;;;;;29.20;20.77;;;8.40;99.90;;;;;;5016144;28;20966;-67
2024/03/07 09:52:06;;;;;;;28.47;20.10;;;8.50;99.90;;;;;;5020878;28;20981;-66
2024/03/07 09:54:31;;;;;;;26.83;19.93;;;8.50;99.90;;;;;;5020271;28;20423;-67
2024/03/07 09:57:02;;;;;;;28.67;21.03;;;8.60;99.90;;;;;;5025355;28;20423;-67
2024/03/07 09:59:32;;;;;;;26.43;20.60;;;8.60;99.90;;;;;;5019804;28;20177;-67
2024/03/07 10:01:59;;;;;;;29.53;21.40;;;8.70;99.90;;;;;;5019458;28;20937;-67
2024/03/07 10:04:48;;;;;;;30.60;22.70;;;8.70;99.90;;;;;;5023861;28;20439;-67
2024/03/07 10:07:16;;;;;;;24.97;19.10;;;8.80;99.90;;;;;;5020739;28;20520;-68
2024/03/07 10:09:42;;;;;;;36.87;22.40;;;8.80;99.90;;;;;;5024649;28;20438;-67
2024/03/07 10:12:12;;;;;;;27.10;21.00;;;8.90;99.90;;;;;;5021843;28;20419;-67
2024/03/07 10:14:58;;;;;;;31.00;22.00;;;8.90;99.90;;;;;;5019394;28;20200;-68
2024/03/07 10:17:26;;;;;;;25.73;20.97;;;9.00;99.90;;;;;;5014658;28;20543;-67
2024/03/07 10:19:53;;;;;;;24.27;19.20;;;9.00;99.90;;;;;;5026238;28;20411;-68
2024/03/07 10:22:20;;;;;;;27.90;20.50;;;9.10;99.90;;;;;;5023492;28;20495;-67
2024/03/07 10:24:56;;;;;;;31.47;21.93;;;9.10;99.90;;;;;;5024035;28;20872;-67
2024/03/07 10:27:22;;;;;;;28.77;22.93;;;9.20;99.90;;;;;;5018859;28;20550;-67
2024/03/07 10:29:49;;;;;;;30.87;21.37;;;9.30;99.90;;;;;;5020834;28;20410;-67
2024/03/07 10:32:22;;;;;;;35.40;21.20;;;9.40;99.90;;;;;;5021048;28;20502;-68
2024/03/07 10:34:50;;;;;;;29.83;22.60;;;9.40;99.90;;;;;;5024803;28;20431;-67
2024/03/07 10:37:17;;;;;;;26.90;21.27;;;9.50;99.90;;;;;;5026822;28;20435;-67
2024/03/07 10:39:46;;;;;;;28.50;21.37;;;9.70;99.90;;;;;;5026941;28;21143;-68
2024/03/07 10:42:16;;;;;;;28.63;21.57;;;9.90;99.90;;;;;;5024251;28;20473;-67
2024/03/07 10:44:44;;;;;;;30.37;23.27;;;10.10;99.90;;;;;;5016580;28;20456;-67
2024/03/07 10:47:17;;;;;;;28.30;22.67;;;10.20;99.90;;;;;;5023784;28;20470;-68
2024/03/07 10:50:14;;;;;;;29.30;21.67;;;10.30;99.90;;;;;;5023490;28;20407;-67
2024/03/07 10:52:50;;;;;;;27.80;21.00;;;10.50;99.90;;;;;;5014299;28;20523;-67
2024/03/07 10:55:36;;;;;;;29.27;21.47;;;10.60;99.90;;;;;;5024290;28;21317;-67
2024/03/07 10:58:37;;;;;;;27.27;20.90;;;10.60;99.90;;;;;;5021879;28;20934;-67
2024/03/07 11:01:05;;;;;;;26.70;20.93;;;10.60;99.90;;;;;;5013107;28;20794;-67
2024/03/07 11:03:34;;;;;;;28.83;21.47;;;10.70;99.90;;;;;;5023217;28;20854;-67
2024/03/07 11:06:06;;;;;;;29.73;23.37;;;10.80;99.90;;;;;;5018991;28;20470;-67
2024/03/07 11:08:34;;;;;;;26.37;21.60;;;10.90;99.90;;;;;;5020038;28;20423;-67
2024/03/07 11:11:00;;;;;;;33.83;22.93;;;11.10;99.90;;;;;;5024309;28;20439;-67
2024/03/07 11:13:26;;;;;;;32.30;25.43;;;11.30;99.90;;;;;;5023982;28;20446;-67
2024/03/07 11:15:57;;;;;;;34.07;25.57;;;11.50;99.90;;;;;;5023676;28;20956;-67
2024/03/07 11:18:24;;;;;;;32.77;24.83;;;11.60;99.90;;;;;;5014680;28;20446;-67
2024/03/07 11:20:50;;;;;;;34.87;24.40;;;11.60;99.90;;;;;;5022397;28;20519;-67
2024/03/07 11:23:41;;;;;;;32.30;24.27;;;11.70;99.90;;;;;;5018692;28;20844;-67
2024/03/07 11:26:13;;;;;;;31.60;23.57;;;11.60;99.90;;;;;;5020149;28;20497;-67
2024/03/07 11:28:42;;;;;;;33.27;24.83;;;11.80;99.90;;;;;;5021903;28;20873;-67
2024/03/07 11:31:28;;;;;;;30.20;25.90;;;11.90;99.90;;;;;;5023193;28;20446;-67
2024/03/07 11:34:19;;;;;;;32.43;24.97;;;12.00;99.90;;;;;;5020965;28;20451;-67
2024/03/07 11:36:46;;;;;;;29.73;23.80;;;12.00;99.90;;;;;;5023447;28;20419;-67
2024/03/07 11:39:39;;;;;;;37.07;25.13;;;12.10;99.90;;;;;;5022725;28;20431;-68
2024/03/07 11:42:06;;;;;;;31.60;23.33;;;12.10;99.90;;;;;;5021639;28;20534;-67
2024/03/07 11:44:34;;;;;;;32.87;24.47;;;12.10;99.90;;;;;;5023537;28;20493;-67
2024/03/07 11:47:08;;;;;;;34.33;23.57;;;12.20;99.90;;;;;;5022834;28;20494;-68
2024/03/07 11:49:36;;;;;;;33.47;24.20;;;12.10;99.90;;;;;;5019463;28;20427;-68
2024/03/07 11:52:13;;;;;;;29.90;23.90;;;12.20;99.90;;;;;;5019934;28;20546;-67
2024/03/07 11:54:46;;;;;;;33.60;25.07;;;12.20;99.90;;;;;;5015946;28;20973;-68
2024/03/07 11:57:29;;;;;;;32.03;23.00;;;12.20;99.90;;;;;;5023378;28;20493;-67
2024/03/07 11:59:57;;;;;;;35.70;24.40;;;12.30;99.90;;;;;;5018255;28;21107;-67
2024/03/07 12:02:22;;;;;;;31.63;24.00;;;12.40;99.90;;;;;;5015442;28;20462;-67
2024/03/07 12:04:49;;;;;;;31.53;23.73;;;12.40;99.90;;;;;;5014451;28;20443;-67
2024/03/07 12:07:17;;;;;;;33.40;25.77;;;12.40;99.90;;;;;;5015534;28;20219;-67
2024/03/07 12:09:46;;;;;;;28.80;22.90;;;12.40;99.90;;;;;;5023180;28;20419;-67
2024/03/07 12:12:12;;;;;;;31.00;24.43;;;12.40;99.90;;;;;;5022029;28;20422;-67
2024/03/07 12:14:38;;;;;;;29.97;23.23;;;12.40;99.90;;;;;;5019728;28;20797;-67
2024/03/07 12:17:05;;;;;;;31.23;25.10;;;12.40;99.90;;;;;;5015615;28;20620;-67
2024/03/07 12:19:35;;;;;;;30.43;23.70;;;12.40;99.90;;;;;;5012898;28;20461;-67
2024/03/07 12:22:02;;;;;;;32.17;24.47;;;12.50;99.90;;;;;;5015790;28;20787;-67
2024/03/07 12:24:28;;;;;;;29.87;23.30;;;12.50;99.90;;;;;;5021802;28;20442;-67
2024/03/07 12:27:04;;;;;;;29.07;23.70;;;12.50;99.90;;;;;;5019879;28;20458;-67
2024/03/07 12:29:30;;;;;;;35.23;24.50;;;12.50;99.90;;;;;;5028789;28;20431;-66
2024/03/07 12:31:56;;;;;;;30.40;23.93;;;12.40;99.90;;;;;;5020363;28;20480;-67
2024/03/07 12:34:23;;;;;;;32.83;23.90;;;12.40;99.90;;;;;;5015675;28;20468;-68
2024/03/07 12:36:50;;;;;;;28.50;21.87;;;12.50;99.90;;;;;;5020762;28;20318;-68
2024/03/07 12:39:26;;;;;;;32.70;23.67;;;12.60;99.90;;;;;;5024016;28;20423;-67